sensor_id;sensor_type;location;lat;lon;timestamp;pressure;altitude;pressure_sealevel;temperature;humidity
49461;BME280;35355;49.198;-0.368;2023-05-21T00:00:26;101332.22;;;14.56;65.91
49461;BME280;35355;49.198;-0.368;2023-05-21T00:02:52;101336.88;;;14.56;65.94
49461;BME280;35355;49.198;-0.368;2023-05-21T00:05:18;101339.06;;;14.54;66.20
49461;BME280;35355;49.198;-0.368;2023-05-21T00:07:45;101341.00;;;14.53;66.09
49461;BME280;35355;49.198;-0.368;2023-05-21T00:10:11;101333.84;;;14.52;66.13
49461;BME280;35355;49.198;-0.368;2023-05-21T00:12:37;101350.59;;;14.51;66.09
49461;BME280;35355;49.198;-0.368;2023-05-21T00:15:02;101338.81;;;14.50;66.24
49461;BME280;35355;49.198;-0.368;2023-05-21T00:17:28;101332.50;;;14.50;66.16
49461;BME280;35355;49.198;-0.368;2023-05-21T00:19:53;101327.81;;;14.50;66.19
49461;BME280;35355;49.198;-0.368;2023-05-21T00:22:20;101345.94;;;14.51;66.08
49461;BME280;35355;49.198;-0.368;2023-05-21T00:24:46;101328.63;;;14.51;66.23
49461;BME280;35355;49.198;-0.368;2023-05-21T00:27:12;101328.63;;;14.51;66.59
49461;BME280;35355;49.198;-0.368;2023-05-21T00:29:38;101322.03;;;14.52;66.26
49461;BME280;35355;49.198;-0.368;2023-05-21T00:32:03;101316.81;;;14.50;66.21
49461;BME280;35355;49.198;-0.368;2023-05-21T00:34:29;101309.13;;;14.52;66.20
49461;BME280;35355;49.198;-0.368;2023-05-21T00:36:54;101306.38;;;14.52;66.27
49461;BME280;35355;49.198;-0.368;2023-05-21T00:39:20;101302.81;;;14.52;66.38
49461;BME280;35355;49.198;-0.368;2023-05-21T00:41:45;101311.06;;;14.52;66.53
49461;BME280;35355;49.198;-0.368;2023-05-21T00:44:13;101295.13;;;14.49;66.61
49461;BME280;35355;49.198;-0.368;2023-05-21T00:46:38;101293.75;;;14.46;66.56
49461;BME280;35355;49.198;-0.368;2023-05-21T00:49:04;101297.06;;;14.48;66.74
49461;BME280;35355;49.198;-0.368;2023-05-21T00:51:29;101306.66;;;14.51;66.72
49461;BME280;35355;49.198;-0.368;2023-05-21T00:53:55;101312.16;;;14.51;67.08
49461;BME280;35355;49.198;-0.368;2023-05-21T00:56:22;101303.66;;;14.47;66.91
49461;BME280;35355;49.198;-0.368;2023-05-21T00:58:49;101306.38;;;14.47;66.83
49461;BME280;35355;49.198;-0.368;2023-05-21T01:01:16;101319.56;;;14.45;66.83
49461;BME280;35355;49.198;-0.368;2023-05-21T01:03:42;101316.28;;;14.43;66.80
49461;BME280;35355;49.198;-0.368;2023-05-21T01:06:09;101309.13;;;14.42;66.95
49461;BME280;35355;49.198;-0.368;2023-05-21T01:08:35;101302.81;;;14.42;67.19
49461;BME280;35355;49.198;-0.368;2023-05-21T01:11:02;101294.28;;;14.43;67.21
49461;BME280;35355;49.198;-0.368;2023-05-21T01:13:30;101297.59;;;14.45;67.11
49461;BME280;35355;49.198;-0.368;2023-05-21T01:15:57;101297.59;;;14.45;67.29
49461;BME280;35355;49.198;-0.368;2023-05-21T01:18:23;101303.06;;;14.45;67.48
49461;BME280;35355;49.198;-0.368;2023-05-21T01:20:49;101294.84;;;14.45;67.26
49461;BME280;35355;49.198;-0.368;2023-05-21T01:23:18;101296.50;;;14.46;67.03
49461;BME280;35355;49.198;-0.368;2023-05-21T01:25:44;101299.25;;;14.46;67.30
49461;BME280;35355;49.198;-0.368;2023-05-21T01:28:10;101307.75;;;14.45;67.30
49461;BME280;35355;49.198;-0.368;2023-05-21T01:30:37;101312.44;;;14.44;67.47
49461;BME280;35355;49.198;-0.368;2023-05-21T01:33:09;101308.31;;;14.42;67.11
49461;BME280;35355;49.198;-0.368;2023-05-21T01:35:49;101319.03;;;14.38;67.10
49461;BME280;35355;49.198;-0.368;2023-05-21T01:41:19;101318.47;;;14.41;67.36
49461;BME280;35355;49.198;-0.368;2023-05-21T01:43:46;101304.19;;;14.39;67.38
49461;BME280;35355;49.198;-0.368;2023-05-21T01:46:14;101305.84;;;14.40;67.45
49461;BME280;35355;49.198;-0.368;2023-05-21T01:48:42;101294.84;;;14.40;67.74
49461;BME280;35355;49.198;-0.368;2023-05-21T01:51:08;101294.84;;;14.40;67.63
49461;BME280;35355;49.198;-0.368;2023-05-21T01:53:34;101305.84;;;14.40;67.54
49461;BME280;35355;49.198;-0.368;2023-05-21T01:55:59;101304.19;;;14.39;67.69
49461;BME280;35355;49.198;-0.368;2023-05-21T01:58:27;101312.41;;;14.39;67.70
49461;BME280;35355;49.198;-0.368;2023-05-21T02:00:52;101296.50;;;14.41;67.87
49461;BME280;35355;49.198;-0.368;2023-05-21T02:03:18;101301.16;;;14.41;67.58
49461;BME280;35355;49.198;-0.368;2023-05-21T02:05:44;101304.19;;;14.39;67.58
49461;BME280;35355;49.198;-0.368;2023-05-21T02:08:10;101298.16;;;14.37;67.61
49461;BME280;35355;49.198;-0.368;2023-05-21T02:10:37;101301.16;;;14.35;67.62
49461;BME280;35355;49.198;-0.368;2023-05-21T02:13:02;101299.50;;;14.34;67.73
49461;BME280;35355;49.198;-0.368;2023-05-21T02:15:28;101292.34;;;14.33;67.69
49461;BME280;35355;49.198;-0.368;2023-05-21T02:17:54;101301.69;;;14.37;67.68
49461;BME280;35355;49.198;-0.368;2023-05-21T02:20:20;101300.88;;;14.37;67.74
49461;BME280;35355;49.198;-0.368;2023-05-21T02:22:47;101318.47;;;14.36;67.75
49461;BME280;35355;49.198;-0.368;2023-05-21T02:25:14;101309.09;;;14.32;67.82
49461;BME280;35355;49.198;-0.368;2023-05-21T02:27:41;101302.53;;;14.28;67.86
49461;BME280;35355;49.198;-0.368;2023-05-21T02:30:08;101313.25;;;14.29;67.75
49461;BME280;35355;49.198;-0.368;2023-05-21T02:32:34;101309.66;;;14.29;67.93
49461;BME280;35355;49.198;-0.368;2023-05-21T02:35:01;101299.53;;;14.29;67.99
49461;BME280;35355;49.198;-0.368;2023-05-21T02:37:29;101300.88;;;14.32;68.06
49461;BME280;35355;49.198;-0.368;2023-05-21T02:39:58;101304.47;;;14.32;67.89
49461;BME280;35355;49.198;-0.368;2023-05-21T02:42:24;101307.47;;;14.31;68.13
49461;BME280;35355;49.198;-0.368;2023-05-21T02:44:50;101303.63;;;14.32;68.07
49461;BME280;35355;49.198;-0.368;2023-05-21T02:47:16;101297.84;;;14.33;68.10
49461;BME280;35355;49.198;-0.368;2023-05-21T02:49:42;101298.69;;;14.34;68.12
49461;BME280;35355;49.198;-0.368;2023-05-21T02:52:07;101281.94;;;14.35;68.07
49461;BME280;35355;49.198;-0.368;2023-05-21T02:54:32;101287.16;;;14.37;68.20
49461;BME280;35355;49.198;-0.368;2023-05-21T02:56:58;101299.53;;;14.39;68.31
49461;BME280;35355;49.198;-0.368;2023-05-21T02:59:23;101290.16;;;14.41;68.23
49461;BME280;35355;49.198;-0.368;2023-05-21T03:01:48;101285.53;;;14.41;68.16
49461;BME280;35355;49.198;-0.368;2023-05-21T03:04:14;101284.41;;;14.42;68.22
49461;BME280;35355;49.198;-0.368;2023-05-21T03:06:41;101291.28;;;14.45;68.26
49461;BME280;35355;49.198;-0.368;2023-05-21T03:09:06;101289.34;;;14.45;68.32
49461;BME280;35355;49.198;-0.368;2023-05-21T03:11:32;101292.09;;;14.45;68.30
49461;BME280;35355;49.198;-0.368;2023-05-21T03:13:57;101292.09;;;14.45;68.27
49461;BME280;35355;49.198;-0.368;2023-05-21T03:16:23;101288.00;;;14.43;68.23
49461;BME280;35355;49.198;-0.368;2023-05-21T03:18:48;101295.38;;;14.42;68.43
49461;BME280;35355;49.198;-0.368;2023-05-21T03:21:13;101291.00;;;14.41;68.43
49461;BME280;35355;49.198;-0.368;2023-05-21T03:23:40;101295.38;;;14.42;68.41
49461;BME280;35355;49.198;-0.368;2023-05-21T03:26:06;101297.03;;;14.43;68.42
49461;BME280;35355;49.198;-0.368;2023-05-21T03:28:32;101293.75;;;14.46;68.49
49461;BME280;35355;49.198;-0.368;2023-05-21T03:30:57;101294.31;;;14.48;68.38
49461;BME280;35355;49.198;-0.368;2023-05-21T03:33:23;101289.91;;;14.47;68.43
49461;BME280;35355;49.198;-0.368;2023-05-21T03:35:48;101291.56;;;14.48;67.99
49461;BME280;35355;49.198;-0.368;2023-05-21T03:38:13;101293.75;;;14.46;68.54
49461;BME280;35355;49.198;-0.368;2023-05-21T03:40:39;101292.94;;;14.46;68.53
49461;BME280;35355;49.198;-0.368;2023-05-21T03:43:04;101293.75;;;14.46;68.49
49461;BME280;35355;49.198;-0.368;2023-05-21T03:45:29;101298.16;;;14.47;68.50
49461;BME280;35355;49.198;-0.368;2023-05-21T03:47:55;101311.06;;;14.47;68.38
49461;BME280;35355;49.198;-0.368;2023-05-21T03:50:20;101292.09;;;14.45;68.59
49461;BME280;35355;49.198;-0.368;2023-05-21T03:52:46;101293.75;;;14.46;68.52
49461;BME280;35355;49.198;-0.368;2023-05-21T03:55:11;101294.59;;;14.47;68.64
49461;BME280;35355;49.198;-0.368;2023-05-21T03:57:37;101300.09;;;14.47;68.53
49461;BME280;35355;49.198;-0.368;2023-05-21T04:00:03;101302.81;;;14.47;68.72
49461;BME280;35355;49.198;-0.368;2023-05-21T04:02:30;101301.44;;;14.44;68.80
49461;BME280;35355;49.198;-0.368;2023-05-21T04:04:55;101293.22;;;14.44;69.09
49461;BME280;35355;49.198;-0.368;2023-05-21T04:07:21;101297.84;;;14.44;68.81
49461;BME280;35355;49.198;-0.368;2023-05-21T04:09:46;101302.00;;;14.46;69.04
49461;BME280;35355;49.198;-0.368;2023-05-21T04:12:12;101293.75;;;14.46;68.95
49461;BME280;35355;49.198;-0.368;2023-05-21T04:14:37;101308.06;;;14.48;68.92
49461;BME280;35355;49.198;-0.368;2023-05-21T04:17:03;101302.00;;;14.46;69.10
49461;BME280;35355;49.198;-0.368;2023-05-21T04:19:29;101300.31;;;14.45;69.15
49461;BME280;35355;49.198;-0.368;2023-05-21T04:21:55;101288.81;;;14.43;68.95
49461;BME280;35355;49.198;-0.368;2023-05-21T04:24:22;101294.28;;;14.43;69.18
49461;BME280;35355;49.198;-0.368;2023-05-21T04:26:48;101297.59;;;14.45;69.33
49461;BME280;35355;49.198;-0.368;2023-05-21T04:29:14;101303.91;;;14.46;69.23
49461;BME280;35355;49.198;-0.368;2023-05-21T04:31:42;101298.16;;;14.47;69.34
49461;BME280;35355;49.198;-0.368;2023-05-21T04:34:08;101296.78;;;14.45;69.18
49461;BME280;35355;49.198;-0.368;2023-05-21T04:36:33;101296.78;;;14.45;69.17
49461;BME280;35355;49.198;-0.368;2023-05-21T04:38:58;101298.44;;;14.46;69.44
49461;BME280;35355;49.198;-0.368;2023-05-21T04:41:24;101305.31;;;14.48;69.29
49461;BME280;35355;49.198;-0.368;2023-05-21T04:43:49;101305.31;;;14.48;69.41
49461;BME280;35355;49.198;-0.368;2023-05-21T04:46:20;101311.88;;;14.47;69.43
49461;BME280;35355;49.198;-0.368;2023-05-21T04:48:52;101299.25;;;14.46;69.38
49461;BME280;35355;49.198;-0.368;2023-05-21T04:51:21;101311.88;;;14.47;69.47
49461;BME280;35355;49.198;-0.368;2023-05-21T04:53:48;101313.53;;;14.48;69.52
49461;BME280;35355;49.198;-0.368;2023-05-21T04:56:15;101321.22;;;14.51;69.61
49461;BME280;35355;49.198;-0.368;2023-05-21T04:58:42;101299.78;;;14.53;69.49
49461;BME280;35355;49.198;-0.368;2023-05-21T05:01:07;101300.59;;;14.54;69.56
49461;BME280;35355;49.198;-0.368;2023-05-21T05:03:33;101309.69;;;14.54;69.09
49461;BME280;35355;49.198;-0.368;2023-05-21T05:05:58;101306.94;;;14.54;69.49
49461;BME280;35355;49.198;-0.368;2023-05-21T05:08:24;101306.09;;;14.54;69.58
49461;BME280;35355;49.198;-0.368;2023-05-21T05:10:50;101310.78;;;14.53;69.57
49461;BME280;35355;49.198;-0.368;2023-05-21T05:13:15;101303.91;;;14.51;69.63
49461;BME280;35355;49.198;-0.368;2023-05-21T05:15:40;101311.34;;;14.50;69.80
49461;BME280;35355;49.198;-0.368;2023-05-21T05:18:06;101300.34;;;14.50;69.61
49461;BME280;35355;49.198;-0.368;2023-05-21T05:20:32;101306.38;;;14.52;69.89
49461;BME280;35355;49.198;-0.368;2023-05-21T05:22:58;101306.94;;;14.54;69.62
49461;BME280;35355;49.198;-0.368;2023-05-21T05:25:23;101308.56;;;14.55;69.70
49461;BME280;35355;49.198;-0.368;2023-05-21T05:27:48;101308.06;;;14.59;69.64
49461;BME280;35355;49.198;-0.368;2023-05-21T05:30:14;101312.44;;;14.60;69.71
49461;BME280;35355;49.198;-0.368;2023-05-21T05:32:39;101304.78;;;14.62;69.76
49461;BME280;35355;49.198;-0.368;2023-05-21T05:35:06;101311.63;;;14.64;69.75
49461;BME280;35355;49.198;-0.368;2023-05-21T05:37:31;101307.50;;;14.67;69.72
49461;BME280;35355;49.198;-0.368;2023-05-21T05:39:57;101307.22;;;14.68;69.65
49461;BME280;35355;49.198;-0.368;2023-05-21T05:42:23;101311.38;;;14.71;69.67
49461;BME280;35355;49.198;-0.368;2023-05-21T05:44:48;101313.84;;;14.72;69.50
49461;BME280;35355;49.198;-0.368;2023-05-21T05:47:13;101311.09;;;14.72;69.65
49461;BME280;35355;49.198;-0.368;2023-05-21T05:49:39;101312.47;;;14.75;69.55
49461;BME280;35355;49.198;-0.368;2023-05-21T05:52:05;101305.31;;;14.74;69.42
49461;BME280;35355;49.198;-0.368;2023-05-21T05:54:30;101310.53;;;14.76;69.49
49461;BME280;35355;49.198;-0.368;2023-05-21T05:56:56;101309.44;;;14.77;69.55
49461;BME280;35355;49.198;-0.368;2023-05-21T05:59:21;101305.84;;;14.76;69.31
49461;BME280;35355;49.198;-0.368;2023-05-21T06:01:47;101308.88;;;14.74;69.53
49461;BME280;35355;49.198;-0.368;2023-05-21T06:04:12;101314.09;;;14.76;69.49
49461;BME280;35355;49.198;-0.368;2023-05-21T06:06:37;101306.41;;;14.78;69.51
49461;BME280;35355;49.198;-0.368;2023-05-21T06:09:03;101308.88;;;14.80;69.41
49461;BME280;35355;49.198;-0.368;2023-05-21T06:11:28;101328.13;;;14.80;69.39
49461;BME280;35355;49.198;-0.368;2023-05-21T06:13:54;101320.44;;;14.77;69.30
49461;BME280;35355;49.198;-0.368;2023-05-21T06:16:19;101324.28;;;14.76;69.40
49461;BME280;35355;49.198;-0.368;2023-05-21T06:18:44;101328.41;;;14.78;69.52
49461;BME280;35355;49.198;-0.368;2023-05-21T06:21:10;101333.34;;;14.81;69.54
49461;BME280;35355;49.198;-0.368;2023-05-21T06:23:35;101335.53;;;14.84;69.23
49461;BME280;35355;49.198;-0.368;2023-05-21T06:26:04;101338.28;;;14.84;69.54
49461;BME280;35355;49.198;-0.368;2023-05-21T06:28:30;101337.72;;;14.87;69.50
49461;BME280;35355;49.198;-0.368;2023-05-21T06:30:55;101333.88;;;14.88;69.38
49461;BME280;35355;49.198;-0.368;2023-05-21T06:33:21;101331.69;;;14.90;69.83
49461;BME280;35355;49.198;-0.368;2023-05-21T06:35:47;101337.75;;;14.93;69.60
49461;BME280;35355;49.198;-0.368;2023-05-21T06:38:12;101333.59;;;14.95;69.38
49461;BME280;35355;49.198;-0.368;2023-05-21T06:40:37;101324.00;;;14.93;69.20
49461;BME280;35355;49.198;-0.368;2023-05-21T06:43:03;101327.84;;;14.91;69.25
49461;BME280;35355;49.198;-0.368;2023-05-21T06:45:29;101326.19;;;14.90;69.38
49461;BME280;35355;49.198;-0.368;2023-05-21T06:47:54;101336.63;;;14.88;69.42
49461;BME280;35355;49.198;-0.368;2023-05-21T06:50:20;101327.28;;;14.89;69.39
49461;BME280;35355;49.198;-0.368;2023-05-21T06:52:45;101334.44;;;14.90;69.50
49461;BME280;35355;49.198;-0.368;2023-05-21T06:55:10;101339.38;;;14.94;69.46
49461;BME280;35355;49.198;-0.368;2023-05-21T06:57:37;101330.56;;;14.97;69.39
49461;BME280;35355;49.198;-0.368;2023-05-21T07:00:03;101344.31;;;14.97;69.35
49461;BME280;35355;49.198;-0.368;2023-05-21T07:02:29;101343.22;;;14.98;69.43
49461;BME280;35355;49.198;-0.368;2023-05-21T07:04:54;101342.94;;;14.99;69.21
49461;BME280;35355;49.198;-0.368;2023-05-21T07:07:19;101345.97;;;15.03;69.03
49461;BME280;35355;49.198;-0.368;2023-05-21T07:09:45;101346.50;;;15.05;69.29
49461;BME280;35355;49.198;-0.368;2023-05-21T07:12:10;101343.50;;;15.06;69.09
49461;BME280;35355;49.198;-0.368;2023-05-21T07:14:35;101339.09;;;15.11;69.11
49461;BME280;35355;49.198;-0.368;2023-05-21T07:17:01;101334.94;;;15.13;69.15
49461;BME280;35355;49.198;-0.368;2023-05-21T07:19:26;101338.25;;;15.15;69.08
49461;BME280;35355;49.198;-0.368;2023-05-21T07:21:52;101327.25;;;15.15;68.98
49461;BME280;35355;49.198;-0.368;2023-05-21T07:24:17;101331.91;;;15.20;69.01
49461;BME280;35355;49.198;-0.368;2023-05-21T07:26:42;101333.28;;;15.22;68.81
49461;BME280;35355;49.198;-0.368;2023-05-21T07:29:08;101333.81;;;15.24;68.97
49461;BME280;35355;49.198;-0.368;2023-05-21T07:31:33;101340.69;;;15.27;68.98
49461;BME280;35355;49.198;-0.368;2023-05-21T07:33:58;101334.63;;;15.30;68.81
49461;BME280;35355;49.198;-0.368;2023-05-21T07:36:24;101327.75;;;15.33;68.70
49461;BME280;35355;49.198;-0.368;2023-05-21T07:38:50;101338.75;;;15.38;69.06
49461;BME280;35355;49.198;-0.368;2023-05-21T07:41:17;101339.28;;;15.40;69.00
49461;BME280;35355;49.198;-0.368;2023-05-21T07:43:42;101343.69;;;15.41;69.02
49461;BME280;35355;49.198;-0.368;2023-05-21T07:46:08;101351.13;;;15.40;69.11
49461;BME280;35355;49.198;-0.368;2023-05-21T07:48:33;101340.94;;;15.41;69.10
49461;BME280;35355;49.198;-0.368;2023-05-21T07:50:59;101350.03;;;15.41;69.28
49461;BME280;35355;49.198;-0.368;2023-05-21T07:53:24;101347.28;;;15.41;69.18
49461;BME280;35355;49.198;-0.368;2023-05-21T07:55:50;101338.75;;;15.43;69.38
49461;BME280;35355;49.198;-0.368;2023-05-21T07:58:16;101336.50;;;15.45;69.43
49461;BME280;35355;49.198;-0.368;2023-05-21T08:00:44;101348.06;;;15.52;69.68
49461;BME280;35355;49.198;-0.368;2023-05-21T08:03:14;101339.22;;;15.55;69.74
49461;BME280;35355;49.198;-0.368;2023-05-21T08:05:43;101327.66;;;15.58;70.02
49461;BME280;35355;49.198;-0.368;2023-05-21T08:08:13;101334.25;;;15.63;69.78
49461;BME280;35355;49.198;-0.368;2023-05-21T08:10:38;101334.22;;;15.68;70.03
49461;BME280;35355;49.198;-0.368;2023-05-21T08:13:03;101333.94;;;15.74;69.90
49461;BME280;35355;49.198;-0.368;2023-05-21T08:15:29;101332.03;;;15.80;69.89
49461;BME280;35355;49.198;-0.368;2023-05-21T08:17:54;101332.25;;;15.84;70.01
49461;BME280;35355;49.198;-0.368;2023-05-21T08:20:20;101332.25;;;15.89;69.71
49461;BME280;35355;49.198;-0.368;2023-05-21T08:22:45;101328.34;;;15.95;69.34
49461;BME280;35355;49.198;-0.368;2023-05-21T08:25:11;101325.03;;;15.98;69.17
49461;BME280;35355;49.198;-0.368;2023-05-21T08:27:36;101334.38;;;16.02;69.51
49461;BME280;35355;49.198;-0.368;2023-05-21T08:30:02;101331.34;;;16.04;69.20
49461;BME280;35355;49.198;-0.368;2023-05-21T08:32:27;101332.44;;;16.03;69.21
49461;BME280;35355;49.198;-0.368;2023-05-21T08:34:53;101339.88;;;16.02;69.02
49461;BME280;35355;49.198;-0.368;2023-05-21T08:37:20;101335.19;;;16.03;69.14
49461;BME280;35355;49.198;-0.368;2023-05-21T08:39:45;101337.09;;;16.07;69.16
49461;BME280;35355;49.198;-0.368;2023-05-21T08:44:58;101348.09;;;16.12;68.95
49461;BME280;35355;49.198;-0.368;2023-05-21T08:47:25;101344.50;;;16.12;68.79
49461;BME280;35355;49.198;-0.368;2023-05-21T08:49:52;101337.59;;;16.14;68.97
49461;BME280;35355;49.198;-0.368;2023-05-21T08:52:19;101357.44;;;16.17;68.72
49461;BME280;35355;49.198;-0.368;2023-05-21T08:54:45;101338.69;;;16.19;68.57
49461;BME280;35355;49.198;-0.368;2023-05-21T08:57:12;101341.69;;;16.22;68.52
49461;BME280;35355;49.198;-0.368;2023-05-21T08:59:39;101332.81;;;16.30;68.51
49461;BME280;35355;49.198;-0.368;2023-05-21T09:02:11;101328.09;;;16.36;68.34
49461;BME280;35355;49.198;-0.368;2023-05-21T09:04:39;101320.06;;;16.45;68.33
49461;BME280;35355;49.198;-0.368;2023-05-21T09:07:05;101316.16;;;16.51;68.06
49461;BME280;35355;49.198;-0.368;2023-05-21T09:09:40;101316.66;;;16.53;67.77
49461;BME280;35355;49.198;-0.368;2023-05-21T09:12:06;101308.59;;;16.62;67.99
49461;BME280;35355;49.198;-0.368;2023-05-21T09:14:33;101319.31;;;16.69;67.65
49461;BME280;35355;49.198;-0.368;2023-05-21T09:16:59;101318.72;;;16.72;67.51
49461;BME280;35355;49.198;-0.368;2023-05-21T09:19:24;101310.41;;;16.77;67.39
49461;BME280;35355;49.198;-0.368;2023-05-21T09:21:52;101312.28;;;16.81;67.47
49461;BME280;35355;49.198;-0.368;2023-05-21T09:24:20;101306.47;;;16.88;67.27
49461;BME280;35355;49.198;-0.368;2023-05-21T09:26:46;101304.25;;;16.90;66.94
49461;BME280;35355;49.198;-0.368;2023-05-21T09:29:12;101310.81;;;16.94;66.89
49461;BME280;35355;49.198;-0.368;2023-05-21T09:31:45;101303.91;;;16.97;66.80
49461;BME280;35355;49.198;-0.368;2023-05-21T09:34:10;101301.97;;;16.97;66.41
49461;BME280;35355;49.198;-0.368;2023-05-21T09:36:37;101304.16;;;17.00;66.56
49461;BME280;35355;49.198;-0.368;2023-05-21T09:39:03;101307.44;;;17.03;66.69
49461;BME280;35355;49.198;-0.368;2023-05-21T09:41:33;101325.06;;;17.07;66.42
49461;BME280;35355;49.198;-0.368;2023-05-21T09:44:03;101317.31;;;17.09;66.07
49461;BME280;35355;49.198;-0.368;2023-05-21T09:46:38;101320.59;;;17.11;66.34
49461;BME280;35355;49.198;-0.368;2023-05-21T09:49:04;101316.13;;;17.15;65.94
49461;BME280;35355;49.198;-0.368;2023-05-21T09:51:29;101312.56;;;17.14;65.93
49461;BME280;35355;49.198;-0.368;2023-05-21T09:53:56;101314.19;;;17.15;65.94
49461;BME280;35355;49.198;-0.368;2023-05-21T09:56:28;101303.69;;;17.17;65.90
49461;BME280;35355;49.198;-0.368;2023-05-21T09:58:56;101310.50;;;17.25;65.77
49461;BME280;35355;49.198;-0.368;2023-05-21T10:01:23;101318.75;;;17.30;65.35
49461;BME280;35355;49.198;-0.368;2023-05-21T10:03:56;101311.56;;;17.29;65.46
49461;BME280;35355;49.198;-0.368;2023-05-21T10:06:31;101314.91;;;17.26;65.25
49461;BME280;35355;49.198;-0.368;2023-05-21T10:08:59;101322.66;;;17.24;65.02
49461;BME280;35355;49.198;-0.368;2023-05-21T10:11:30;101309.44;;;17.21;65.10
49461;BME280;35355;49.198;-0.368;2023-05-21T10:14:06;101303.44;;;17.14;65.08
49461;BME280;35355;49.198;-0.368;2023-05-21T10:16:33;101307.06;;;17.14;65.22
49461;BME280;35355;49.198;-0.368;2023-05-21T10:18:59;101319.97;;;17.19;65.05
49461;BME280;35355;49.198;-0.368;2023-05-21T10:21:28;101309.44;;;17.21;65.21
49461;BME280;35355;49.198;-0.368;2023-05-21T10:23:56;101320.97;;;17.28;65.10
49461;BME280;35355;49.198;-0.368;2023-05-21T10:26:22;101317.59;;;17.31;64.75
49461;BME280;35355;49.198;-0.368;2023-05-21T10:28:54;101320.06;;;17.33;64.72
49461;BME280;35355;49.198;-0.368;2023-05-21T10:31:20;101332.47;;;17.35;64.84
49461;BME280;35355;49.198;-0.368;2023-05-21T10:33:47;101328.59;;;17.36;64.67
49461;BME280;35355;49.198;-0.368;2023-05-21T10:36:15;101321.44;;;17.35;64.53
49461;BME280;35355;49.198;-0.368;2023-05-21T10:38:42;101323.09;;;17.36;64.65
49461;BME280;35355;49.198;-0.368;2023-05-21T10:41:09;101326.38;;;17.39;64.58
49461;BME280;35355;49.198;-0.368;2023-05-21T10:43:50;101330.53;;;17.36;64.62
49461;BME280;35355;49.198;-0.368;2023-05-21T10:49:37;101311.47;;;17.40;64.56
49461;BME280;35355;49.198;-0.368;2023-05-21T10:52:30;101318.56;;;17.46;64.70
49461;BME280;35355;49.198;-0.368;2023-05-21T11:00:10;101307.78;;;17.68;64.18
49461;BME280;35355;49.198;-0.368;2023-05-21T11:02:36;101313.53;;;17.72;64.20
49461;BME280;35355;49.198;-0.368;2023-05-21T11:05:01;101299.66;;;17.77;63.92
49461;BME280;35355;49.198;-0.368;2023-05-21T11:07:57;101299.91;;;17.81;64.28
49461;BME280;35355;49.198;-0.368;2023-05-21T11:10:38;101301.16;;;17.88;64.10
49461;BME280;35355;49.198;-0.368;2023-05-21T11:13:06;101295.09;;;17.92;63.92
49461;BME280;35355;49.198;-0.368;2023-05-21T11:21:08;101293.19;;;17.87;63.97
49461;BME280;35355;49.198;-0.368;2023-05-21T11:26:18;101296.03;;;18.01;63.86
49461;BME280;35355;49.198;-0.368;2023-05-21T11:28:43;101291.81;;;18.09;64.04
49461;BME280;35355;49.198;-0.368;2023-05-21T11:31:25;101292.63;;;18.09;64.00
49461;BME280;35355;49.198;-0.368;2023-05-21T11:36:38;101288.66;;;18.15;64.02
49461;BME280;35355;49.198;-0.368;2023-05-21T11:39:08;101287.84;;;18.15;64.34
49461;BME280;35355;49.198;-0.368;2023-05-21T11:41:56;101286.50;;;18.12;64.02
49461;BME280;35355;49.198;-0.368;2023-05-21T11:44:39;101283.72;;;18.12;64.25
49461;BME280;35355;49.198;-0.368;2023-05-21T11:47:05;101280.06;;;18.17;64.08
49461;BME280;35355;49.198;-0.368;2023-05-21T11:49:31;101284.78;;;18.16;64.04
49461;BME280;35355;49.198;-0.368;2023-05-21T11:51:58;101294.13;;;18.20;63.78
49461;BME280;35355;49.198;-0.368;2023-05-21T11:54:24;101293.81;;;18.22;63.63
49461;BME280;35355;49.198;-0.368;2023-05-21T11:56:50;101288.28;;;18.22;63.56
49461;BME280;35355;49.198;-0.368;2023-05-21T11:59:16;101292.16;;;18.21;63.88
49461;BME280;35355;49.198;-0.368;2023-05-21T12:01:42;101300.38;;;18.26;64.07
49461;BME280;35355;49.198;-0.368;2023-05-21T12:04:08;101298.94;;;18.29;63.95
49461;BME280;35355;49.198;-0.368;2023-05-21T12:06:35;101296.72;;;18.31;63.50
49461;BME280;35355;49.198;-0.368;2023-05-21T12:09:02;101297.28;;;18.28;63.45
49461;BME280;35355;49.198;-0.368;2023-05-21T12:11:28;101302.63;;;18.24;63.45
49461;BME280;35355;49.198;-0.368;2023-05-21T12:13:54;101295.84;;;18.16;63.88
49461;BME280;35355;49.198;-0.368;2023-05-21T12:16:19;101301.38;;;18.16;63.78
49461;BME280;35355;49.198;-0.368;2023-05-21T12:18:44;101295.84;;;18.16;63.48
49461;BME280;35355;49.198;-0.368;2023-05-21T12:21:10;101298.34;;;18.13;63.26
49461;BME280;35355;49.198;-0.368;2023-05-21T12:23:36;101300.09;;;18.09;63.10
49461;BME280;35355;49.198;-0.368;2023-05-21T12:26:01;101296.00;;;18.06;63.58
49461;BME280;35355;49.198;-0.368;2023-05-21T12:28:28;101296.00;;;18.06;63.39
49461;BME280;35355;49.198;-0.368;2023-05-21T12:30:53;101292.13;;;18.07;63.11
49461;BME280;35355;49.198;-0.368;2023-05-21T12:33:19;101303.97;;;18.08;63.11
49461;BME280;35355;49.198;-0.368;2023-05-21T12:35:48;101300.47;;;18.02;63.30
49461;BME280;35355;49.198;-0.368;2023-05-21T12:38:14;101304.34;;;18.01;63.14
49461;BME280;35355;49.198;-0.368;2023-05-21T12:40:39;101300.25;;;17.98;62.93
49461;BME280;35355;49.198;-0.368;2023-05-21T12:43:06;101309.94;;;17.96;62.82
49461;BME280;35355;49.198;-0.368;2023-05-21T12:45:32;101311.91;;;17.95;63.01
49461;BME280;35355;49.198;-0.368;2023-05-21T12:48:01;101297.53;;;17.93;63.09
49461;BME280;35355;49.198;-0.368;2023-05-21T12:50:27;101311.06;;;17.95;63.48
49461;BME280;35355;49.198;-0.368;2023-05-21T12:52:53;101292.56;;;17.95;62.98
49461;BME280;35355;49.198;-0.368;2023-05-21T12:55:21;101292.03;;;17.93;62.78
49461;BME280;35355;49.198;-0.368;2023-05-21T12:57:47;101300.31;;;17.93;62.79
49461;BME280;35355;49.198;-0.368;2023-05-21T13:00:12;101311.91;;;17.95;62.77
49461;BME280;35355;49.198;-0.368;2023-05-21T13:02:40;101305.53;;;17.95;62.67